createdAt,value
2024-04-22T00:00:26.972Z,6.10
2024-04-22T00:01:27.030Z,6.70
2024-04-22T00:02:26.932Z,7.00
2024-04-22T00:03:26.959Z,6.50
2024-04-22T00:04:26.939Z,7.00
2024-04-22T00:05:26.845Z,7.20
2024-04-22T00:06:26.811Z,6.80
2024-04-22T00:07:26.853Z,6.50
2024-04-22T00:08:26.769Z,6.40
2024-04-22T00:09:26.732Z,6.90
2024-04-22T00:10:26.721Z,7.40
2024-04-22T00:11:26.686Z,6.30
2024-04-22T00:12:26.659Z,6.30
2024-04-22T00:13:26.652Z,7.00
2024-04-22T00:14:26.600Z,7.10
2024-04-22T00:15:26.570Z,9.90
2024-04-22T00:16:26.661Z,5.80
2024-04-22T00:17:26.668Z,9.10
2024-04-22T00:18:26.489Z,6.80
2024-04-22T00:19:26.494Z,7.00
2024-04-22T00:20:26.433Z,7.00
2024-04-22T00:21:26.405Z,7.40
2024-04-22T00:22:26.390Z,7.50
2024-04-22T00:23:26.352Z,6.80
2024-04-22T00:24:26.336Z,7.60
2024-04-22T00:25:26.326Z,7.00
2024-04-22T00:26:26.269Z,6.70
2024-04-22T00:27:26.247Z,6.50
2024-04-22T00:28:26.303Z,7.10
2024-04-22T00:29:26.192Z,6.50
2024-04-22T00:30:26.159Z,5.90
2024-04-22T00:31:26.199Z,6.90
2024-04-22T00:32:26.200Z,7.10
2024-04-22T00:33:26.155Z,7.20
2024-04-22T00:34:26.087Z,7.40
2024-04-22T00:35:26.034Z,7.60
2024-04-22T00:36:25.995Z,6.70
2024-04-22T00:37:25.984Z,7.90
2024-04-22T00:38:25.944Z,7.20
2024-04-22T00:39:25.918Z,6.30
2024-04-22T00:40:25.988Z,7.20
2024-04-22T00:41:25.862Z,8.20
2024-04-22T00:42:25.832Z,6.80
2024-04-22T00:43:25.848Z,7.00
2024-04-22T00:44:25.772Z,6.90
2024-04-22T00:45:25.764Z,7.10
2024-04-22T00:46:25.777Z,6.10
2024-04-22T00:47:25.783Z,5.90
2024-04-22T00:48:25.669Z,7.60
2024-04-22T00:49:25.667Z,8.30
2024-04-22T00:50:25.673Z,6.50
2024-04-22T00:51:25.581Z,7.00
2024-04-22T00:52:25.582Z,7.50
2024-04-22T00:53:25.531Z,8.10
2024-04-22T00:54:25.510Z,7.70
2024-04-22T00:55:25.495Z,6.20
2024-04-22T00:56:25.462Z,7.20
2024-04-22T00:57:25.423Z,7.50
2024-04-22T00:58:25.403Z,6.50
2024-04-22T00:59:25.375Z,9.10
2024-04-22T01:00:25.367Z,8.20
2024-04-22T01:01:25.347Z,7.10
2024-04-22T01:02:25.288Z,6.40
2024-04-22T01:03:25.269Z,7.20
2024-04-22T01:04:25.340Z,6.90
2024-04-22T01:05:25.207Z,6.80
2024-04-22T01:06:25.181Z,6.90
2024-04-22T01:07:25.204Z,6.60
2024-04-22T01:08:25.125Z,7.30
2024-04-22T01:09:25.097Z,6.80
2024-04-22T01:10:25.099Z,7.40
2024-04-22T01:11:25.070Z,6.10
2024-04-22T01:12:25.032Z,7.80
2024-04-22T01:13:24.999Z,7.30
2024-04-22T01:14:24.962Z,8.00
2024-04-22T01:15:24.942Z,7.30
2024-04-22T01:16:24.970Z,6.10
2024-04-22T01:17:24.969Z,6.50
2024-04-22T01:18:24.872Z,7.50
2024-04-22T01:19:24.899Z,8.70
2024-04-22T01:20:24.824Z,8.00
2024-04-22T01:21:24.775Z,7.70
2024-04-22T01:22:24.772Z,7.00
2024-04-22T01:23:24.716Z,6.90
2024-04-22T01:24:24.693Z,6.90
2024-04-22T01:25:24.686Z,6.70
2024-04-22T01:26:24.646Z,6.20
2024-04-22T01:27:24.607Z,7.80
2024-04-22T01:28:24.631Z,6.60
2024-04-22T01:29:24.560Z,7.90
2024-04-22T01:30:24.525Z,7.80
2024-04-22T01:31:24.672Z,7.00
2024-04-22T01:32:24.511Z,8.00
2024-04-22T01:33:24.459Z,7.50
2024-04-22T01:34:24.441Z,7.70
2024-04-22T01:35:24.393Z,8.60
2024-04-22T01:36:24.367Z,6.60
2024-04-22T01:37:24.417Z,6.80
2024-04-22T01:38:24.307Z,7.50
2024-04-22T01:39:24.287Z,6.80
2024-04-22T01:40:24.286Z,7.40
2024-04-22T01:41:24.230Z,6.80
2024-04-22T01:42:24.209Z,6.90
2024-04-22T01:43:24.212Z,6.80
2024-04-22T01:44:24.179Z,7.40
2024-04-22T01:45:24.123Z,8.30
2024-04-22T01:46:24.174Z,7.20
2024-04-22T01:47:24.095Z,7.60
2024-04-22T01:48:24.037Z,7.10
2024-04-22T01:49:24.047Z,6.70
2024-04-22T01:50:23.981Z,6.70
2024-04-22T01:51:23.952Z,7.20
2024-04-22T01:52:23.954Z,7.60
2024-04-22T01:53:23.919Z,8.10
2024-04-22T01:54:23.870Z,7.70
2024-04-22T01:55:23.859Z,6.40
2024-04-22T01:56:23.816Z,8.30
2024-04-22T01:57:23.796Z,6.80
2024-04-22T01:58:23.809Z,7.20
2024-04-22T01:59:23.734Z,7.40
2024-04-22T02:00:23.741Z,9.00
2024-04-22T02:01:23.720Z,7.40
2024-04-22T02:02:23.671Z,7.70
2024-04-22T02:03:23.658Z,7.70
2024-04-22T02:04:23.660Z,7.90
2024-04-22T02:05:23.567Z,8.10
2024-04-22T02:06:23.543Z,7.30
2024-04-22T02:07:25.679Z,7.70
2024-04-22T02:08:23.499Z,8.10
2024-04-22T02:09:23.462Z,7.10
2024-04-22T02:10:24.340Z,8.80
2024-04-22T02:11:23.469Z,7.70
2024-04-22T02:12:23.378Z,8.40
2024-04-22T02:13:23.397Z,6.70
2024-04-22T02:14:23.326Z,8.00
2024-04-22T02:15:23.292Z,8.70
2024-04-22T02:16:23.331Z,7.60
2024-04-22T02:17:23.274Z,7.60
2024-04-22T02:18:23.230Z,7.20
2024-04-22T02:19:23.266Z,8.00
2024-04-22T02:20:23.168Z,7.50
2024-04-22T02:21:23.142Z,7.60
2024-04-22T02:22:23.145Z,7.60
2024-04-22T02:23:23.080Z,7.70
2024-04-22T02:24:23.066Z,8.00
2024-04-22T02:25:23.066Z,8.50
2024-04-22T02:26:23.015Z,7.80
2024-04-22T02:27:22.966Z,7.60
2024-04-22T02:28:22.947Z,7.20
2024-04-22T02:29:22.917Z,7.80
2024-04-22T02:30:22.883Z,8.30
2024-04-22T02:31:22.903Z,8.80
2024-04-22T02:32:22.842Z,7.00
2024-04-22T02:33:22.863Z,7.90
2024-04-22T02:34:22.802Z,8.80
2024-04-22T02:35:22.744Z,9.10
2024-04-22T02:36:22.718Z,7.80
2024-04-22T02:37:22.713Z,7.40
2024-04-22T02:38:22.668Z,8.50
2024-04-22T02:39:22.640Z,8.50
2024-04-22T02:40:22.682Z,7.50
2024-04-22T02:41:22.606Z,7.60
2024-04-22T02:42:22.562Z,7.80
2024-04-22T02:43:22.540Z,6.90
2024-04-22T02:44:22.512Z,7.00
2024-04-22T02:45:22.549Z,9.00
2024-04-22T02:46:22.526Z,8.30
2024-04-22T02:47:22.457Z,7.20
2024-04-22T02:48:22.456Z,8.70
2024-04-22T02:49:22.374Z,8.20
2024-04-22T02:50:22.336Z,8.20
2024-04-22T02:51:22.313Z,7.00
2024-04-22T02:52:22.293Z,10.20
2024-04-22T02:53:22.251Z,7.80
2024-04-22T02:54:22.224Z,7.20
2024-04-22T02:55:22.212Z,7.90
2024-04-22T02:56:22.173Z,8.00
2024-04-22T02:57:22.141Z,7.90
2024-04-22T02:58:22.144Z,7.70
2024-04-22T02:59:22.095Z,8.20
2024-04-22T03:00:22.057Z,7.60
2024-04-22T03:01:22.061Z,7.90
2024-04-22T03:02:22.081Z,8.30
2024-04-22T03:03:22.001Z,8.30
2024-04-22T03:04:22.004Z,8.40
2024-04-22T03:05:21.929Z,7.90
2024-04-22T03:06:21.891Z,7.50
2024-04-22T03:07:21.919Z,7.20
2024-04-22T03:08:21.853Z,8.50
2024-04-22T03:09:21.813Z,8.30
2024-04-22T03:10:21.875Z,9.60
2024-04-22T03:11:21.780Z,7.50
2024-04-22T03:12:21.732Z,7.60
2024-04-22T03:13:21.757Z,9.10
2024-04-22T03:14:21.670Z,8.20
2024-04-22T03:15:21.660Z,7.60
2024-04-22T03:16:21.620Z,7.20
2024-04-22T03:17:21.605Z,8.30
2024-04-22T03:18:21.585Z,8.10
2024-04-22T03:19:21.570Z,11.90
2024-04-22T03:20:24.232Z,8.10
2024-04-22T03:21:21.475Z,9.00
2024-04-22T03:22:21.496Z,8.90
2024-04-22T03:23:21.441Z,9.00
2024-04-22T03:24:21.407Z,8.30
2024-04-22T03:25:21.386Z,7.90
2024-04-22T03:26:21.350Z,8.30
2024-04-22T03:27:21.323Z,7.50
2024-04-22T03:28:21.303Z,8.80
2024-04-22T03:29:21.265Z,10.30
2024-04-22T03:30:21.259Z,8.60
2024-04-22T03:31:21.374Z,9.00
2024-04-22T03:32:21.268Z,11.20
2024-04-22T03:33:21.154Z,9.00
2024-04-22T03:34:21.151Z,8.30
2024-04-22T03:35:21.104Z,8.30
2024-04-22T03:36:21.080Z,8.20
2024-04-22T03:37:21.080Z,8.00
2024-04-22T03:38:21.022Z,8.60
2024-04-22T03:39:20.998Z,8.40
2024-04-22T03:40:20.976Z,8.40
2024-04-22T03:41:20.935Z,10.20
2024-04-22T03:42:20.916Z,9.90
2024-04-22T03:43:20.990Z,8.70
2024-04-22T03:44:20.850Z,9.40
2024-04-22T03:45:20.842Z,8.80
2024-04-22T03:46:20.814Z,8.90
2024-04-22T03:47:20.842Z,9.20
2024-04-22T03:48:20.737Z,10.10
2024-04-22T03:49:20.779Z,8.40
2024-04-22T03:50:20.679Z,8.10
2024-04-22T03:51:20.668Z,9.30
2024-04-22T03:52:20.662Z,8.60
2024-04-22T03:53:20.672Z,9.10
2024-04-22T03:54:20.592Z,8.60
2024-04-22T03:55:20.619Z,8.60
2024-04-22T03:56:20.539Z,8.40
2024-04-22T03:57:20.493Z,9.70
2024-04-22T03:58:20.464Z,8.50
2024-04-22T03:59:20.464Z,9.60
2024-04-22T04:00:20.405Z,8.80
2024-04-22T04:01:20.401Z,9.50
2024-04-22T04:02:20.355Z,9.40
2024-04-22T04:03:20.347Z,9.10
2024-04-22T04:04:20.386Z,8.80
2024-04-22T04:05:22.675Z,10.30
2024-04-22T04:06:20.249Z,8.10
2024-04-22T04:07:20.230Z,9.20
2024-04-22T04:08:20.200Z,9.30
2024-04-22T04:09:20.160Z,8.90
2024-04-22T04:10:20.280Z,9.50
2024-04-22T04:11:20.482Z,9.10
2024-04-22T04:12:20.086Z,8.30
2024-04-22T04:13:20.062Z,8.60
2024-04-22T04:14:20.029Z,9.20
2024-04-22T04:15:19.992Z,8.10
2024-04-22T04:16:20.114Z,9.60
2024-04-22T04:17:20.015Z,10.00
2024-04-22T04:18:19.933Z,9.70
2024-04-22T04:19:19.900Z,8.30
2024-04-22T04:20:19.855Z,9.10
2024-04-22T04:21:19.830Z,9.30
2024-04-22T04:22:19.812Z,10.20
2024-04-22T04:23:19.777Z,9.50
2024-04-22T04:24:19.777Z,10.20
2024-04-22T04:25:19.754Z,10.30
2024-04-22T04:26:19.715Z,8.60
2024-04-22T04:27:19.662Z,8.70
2024-04-22T04:28:19.735Z,9.10
2024-04-22T04:29:19.611Z,10.30
2024-04-22T04:30:19.580Z,8.60
2024-04-22T04:31:19.670Z,10.20
2024-04-22T04:32:19.572Z,8.40
2024-04-22T04:33:19.561Z,8.90
2024-04-22T04:34:19.500Z,9.20
2024-04-22T04:35:19.443Z,8.30
2024-04-22T04:36:19.425Z,9.40
2024-04-22T04:37:19.420Z,10.10
2024-04-22T04:38:19.363Z,9.10
2024-04-22T04:39:19.334Z,9.50
2024-04-22T04:40:19.386Z,9.60
2024-04-22T04:41:19.274Z,8.90
2024-04-22T04:42:19.265Z,9.60
2024-04-22T04:43:19.249Z,8.80
2024-04-22T04:44:19.199Z,9.50
2024-04-22T04:45:19.173Z,10.80
2024-04-22T04:46:19.165Z,8.10
2024-04-22T04:47:19.159Z,10.60
2024-04-22T04:48:19.113Z,9.80
2024-04-22T04:49:19.088Z,9.20
2024-04-22T04:50:19.033Z,9.80
2024-04-22T04:51:19.017Z,10.30
2024-04-22T04:52:19.014Z,8.70
2024-04-22T04:53:18.964Z,9.40
2024-04-22T04:54:18.924Z,9.30
2024-04-22T04:55:18.978Z,9.70
2024-04-22T04:56:18.884Z,9.70
2024-04-22T04:57:18.839Z,10.00
2024-04-22T04:58:21.266Z,8.70
2024-04-22T04:59:18.783Z,9.30
2024-04-22T05:00:18.751Z,9.10
2024-04-22T05:01:20.313Z,9.40
2024-04-22T05:02:18.812Z,9.90
2024-04-22T05:03:18.732Z,10.30
2024-04-22T05:04:18.691Z,9.40
2024-04-22T05:05:18.639Z,10.90
2024-04-22T05:06:18.608Z,10.50
2024-04-22T05:07:18.586Z,9.10
2024-04-22T05:08:18.532Z,10.80
2024-04-22T05:09:18.510Z,8.80
2024-04-22T05:10:18.520Z,9.80
2024-04-22T05:11:18.509Z,12.40
2024-04-22T05:12:18.444Z,9.40
2024-04-22T05:13:18.433Z,8.60
2024-04-22T05:14:18.377Z,11.50
2024-04-22T05:15:18.350Z,10.60
2024-04-22T05:16:18.350Z,11.10
2024-04-22T05:17:18.338Z,11.10
2024-04-22T05:18:18.292Z,11.60
2024-04-22T05:19:18.262Z,11.00
2024-04-22T05:20:18.211Z,9.20
2024-04-22T05:21:18.187Z,8.70
2024-04-22T05:22:18.174Z,9.30
2024-04-22T05:23:18.133Z,9.20
2024-04-22T05:24:18.094Z,12.40
2024-04-22T05:25:18.131Z,9.10
2024-04-22T05:26:18.044Z,10.40
2024-04-22T05:27:18.016Z,10.10
2024-04-22T05:28:18.087Z,10.40
2024-04-22T05:29:17.968Z,9.60
2024-04-22T05:30:17.940Z,7.80
2024-04-22T05:31:17.965Z,9.10
2024-04-22T05:32:17.905Z,8.80
2024-04-22T05:33:17.871Z,8.60
2024-04-22T05:34:17.836Z,8.90
2024-04-22T05:35:17.802Z,9.70
2024-04-22T05:36:17.764Z,9.50
2024-04-22T05:37:17.749Z,8.80
2024-04-22T05:38:17.719Z,11.30
2024-04-22T05:39:17.683Z,7.90
2024-04-22T05:40:17.720Z,8.20
2024-04-22T05:41:17.648Z,8.50
2024-04-22T05:42:17.603Z,9.50
2024-04-22T05:43:17.618Z,12.30
2024-04-22T05:44:17.563Z,9.00
2024-04-22T05:45:17.528Z,8.20
2024-04-22T05:46:17.504Z,8.50
2024-04-22T05:47:17.480Z,8.70
2024-04-22T05:48:17.548Z,9.50
2024-04-22T05:49:17.447Z,9.20
2024-04-22T05:50:17.388Z,9.10
2024-04-22T05:51:17.354Z,8.30
2024-04-22T05:52:17.360Z,8.30
2024-04-22T05:53:17.300Z,7.40
2024-04-22T05:54:17.277Z,8.30
2024-04-22T05:55:17.302Z,9.90
2024-04-22T05:56:17.229Z,7.90
2024-04-22T05:57:17.193Z,8.10
2024-04-22T05:58:17.199Z,8.00
2024-04-22T05:59:17.152Z,7.80
2024-04-22T06:00:17.145Z,8.10
2024-04-22T06:01:17.135Z,9.10
2024-04-22T06:02:17.080Z,8.20
2024-04-22T06:03:17.033Z,7.00
2024-04-22T06:04:17.077Z,7.60
2024-04-22T06:05:16.970Z,8.20
2024-04-22T06:06:16.955Z,7.10
2024-04-22T06:07:16.952Z,8.00
2024-04-22T06:08:16.892Z,8.10
2024-04-22T06:09:16.864Z,7.50
2024-04-22T06:10:16.893Z,8.70
2024-04-22T06:11:16.914Z,8.00
2024-04-22T06:12:19.705Z,6.90
2024-04-22T06:13:16.776Z,7.40
2024-04-22T06:14:16.727Z,8.40
2024-04-22T06:15:16.699Z,6.70
2024-04-22T06:16:16.820Z,7.30
2024-04-22T06:17:16.703Z,7.30
2024-04-22T06:18:16.625Z,7.30
2024-04-22T06:19:16.604Z,7.80
2024-04-22T06:20:16.563Z,7.30
2024-04-22T06:21:16.539Z,7.10
2024-04-22T06:22:16.517Z,7.00
2024-04-22T06:23:16.483Z,6.60
2024-04-22T06:24:16.456Z,6.40
2024-04-22T06:25:18.533Z,7.50
2024-04-22T06:26:16.409Z,6.90
2024-04-22T06:27:16.369Z,7.50
2024-04-22T06:28:16.373Z,7.50
2024-04-22T06:29:16.328Z,6.50
2024-04-22T06:30:16.302Z,6.80
2024-04-22T06:31:16.359Z,7.40
2024-04-22T06:32:16.422Z,6.60
2024-04-22T06:33:16.247Z,7.30
2024-04-22T06:34:16.209Z,7.00
2024-04-22T06:35:16.172Z,6.80
2024-04-22T06:36:16.123Z,7.20
2024-04-22T06:37:16.134Z,7.10
2024-04-22T06:38:16.068Z,6.80
2024-04-22T06:39:16.065Z,6.70
2024-04-22T06:40:16.060Z,7.40
2024-04-22T06:41:16.011Z,7.90
2024-04-22T06:42:15.965Z,7.50
2024-04-22T06:43:15.957Z,7.60
2024-04-22T06:44:15.909Z,7.70
2024-04-22T06:45:15.900Z,7.00
2024-04-22T06:46:15.926Z,6.70
2024-04-22T06:47:15.922Z,6.40
2024-04-22T06:48:15.825Z,8.40
2024-04-22T06:49:15.787Z,7.50
2024-04-22T06:50:15.741Z,7.30
2024-04-22T06:51:15.717Z,6.60
2024-04-22T06:52:15.732Z,7.10
2024-04-22T06:53:15.675Z,7.00
2024-04-22T06:54:15.637Z,8.40
2024-04-22T06:55:15.649Z,7.10
2024-04-22T06:56:15.586Z,8.40
2024-04-22T06:57:15.562Z,6.20
2024-04-22T06:58:15.553Z,7.90
2024-04-22T06:59:15.525Z,6.50
2024-04-22T07:00:15.476Z,8.60
2024-04-22T07:01:26.691Z,7.30
2024-04-22T07:02:19.383Z,7.30
2024-04-22T07:03:15.551Z,7.40
2024-04-22T07:04:15.595Z,6.60
2024-04-22T07:05:15.391Z,7.30
2024-04-22T07:06:15.320Z,7.20
2024-04-22T07:07:15.327Z,7.40
2024-04-22T07:08:15.263Z,7.00
2024-04-22T07:09:15.237Z,8.40
2024-04-22T07:10:15.263Z,6.50
2024-04-22T07:11:15.273Z,6.50
2024-04-22T07:12:15.156Z,9.30
2024-04-22T07:13:15.155Z,7.10
2024-04-22T07:14:15.096Z,7.30
2024-04-22T07:15:15.079Z,7.30
2024-04-22T07:16:15.208Z,7.30
2024-04-22T07:17:15.048Z,7.40
2024-04-22T07:18:15.014Z,6.80
2024-04-22T07:19:14.976Z,7.70
2024-04-22T07:20:14.949Z,6.30
2024-04-22T07:21:14.914Z,7.70
2024-04-22T07:22:14.985Z,7.50
2024-04-22T07:23:14.860Z,6.60
2024-04-22T07:24:14.842Z,7.10
2024-04-22T07:25:14.827Z,7.10
2024-04-22T07:26:14.786Z,7.60
2024-04-22T07:27:23.375Z,6.80
2024-04-22T07:28:14.741Z,5.80
2024-04-22T07:29:14.695Z,6.50
2024-04-22T07:30:14.686Z,6.30
2024-04-22T07:31:14.658Z,6.00
2024-04-22T07:32:14.622Z,6.20
2024-04-22T07:33:14.694Z,5.60
2024-04-22T07:34:14.593Z,6.40
2024-04-22T07:35:14.541Z,6.30
2024-04-22T07:36:14.524Z,5.40
2024-04-22T07:37:14.504Z,6.40
2024-04-22T07:38:14.481Z,6.20
2024-04-22T07:39:14.445Z,5.60
2024-04-22T07:40:14.528Z,7.30
2024-04-22T07:41:14.389Z,5.80
2024-04-22T07:42:14.351Z,5.20
2024-04-22T07:43:14.334Z,6.40
2024-04-22T07:44:14.301Z,5.30
2024-04-22T07:45:14.278Z,7.00
2024-04-22T07:46:14.277Z,5.60
2024-04-22T07:47:14.236Z,7.20
2024-04-22T07:48:14.213Z,5.60
2024-04-22T07:49:14.204Z,5.60
2024-04-22T07:50:14.185Z,6.50
2024-04-22T07:51:14.116Z,7.50
2024-04-22T07:52:14.132Z,6.60
2024-04-22T07:53:14.061Z,6.90
2024-04-22T07:54:14.032Z,6.00
2024-04-22T07:55:14.016Z,5.30
2024-04-22T07:56:13.984Z,5.60
2024-04-22T07:57:13.952Z,6.00
2024-04-22T07:58:13.974Z,6.60
2024-04-22T07:59:13.898Z,6.60
2024-04-22T08:00:13.902Z,6.50
2024-04-22T08:01:14.118Z,7.50
2024-04-22T08:02:13.857Z,5.60
2024-04-22T08:03:13.799Z,5.90
2024-04-22T08:04:13.897Z,6.20
2024-04-22T08:05:13.747Z,7.30
2024-04-22T08:06:13.723Z,7.00
2024-04-22T08:07:13.734Z,6.80
2024-04-22T08:08:13.700Z,6.70
2024-04-22T08:09:13.648Z,5.80
2024-04-22T08:10:13.639Z,7.80
2024-04-22T08:11:13.610Z,6.10
2024-04-22T08:12:13.571Z,6.10
2024-04-22T08:13:13.577Z,6.10
2024-04-22T08:14:13.514Z,5.60
2024-04-22T08:15:13.486Z,6.50
2024-04-22T08:16:13.481Z,5.80
2024-04-22T08:17:13.626Z,6.30
2024-04-22T08:18:13.443Z,6.00
2024-04-22T08:19:13.406Z,5.90
2024-04-22T08:20:13.369Z,6.70
2024-04-22T08:21:13.328Z,7.40
2024-04-22T08:22:13.296Z,6.10
2024-04-22T08:23:13.276Z,6.70
2024-04-22T08:24:13.274Z,5.10
2024-04-22T08:25:13.264Z,6.00
2024-04-22T08:26:13.194Z,5.80
2024-04-22T08:27:13.168Z,6.50
2024-04-22T08:28:13.169Z,5.60
2024-04-22T08:29:13.115Z,6.30
2024-04-22T08:30:13.110Z,5.50
2024-04-22T08:31:13.100Z,5.50
2024-04-22T08:32:13.035Z,5.80
2024-04-22T08:33:13.143Z,4.90
2024-04-22T08:34:13.035Z,5.10
2024-04-22T08:35:12.959Z,5.70
2024-04-22T08:36:12.987Z,4.90
2024-04-22T08:37:12.946Z,6.60
2024-04-22T08:38:12.881Z,5.70
2024-04-22T08:39:12.850Z,5.70
2024-04-22T08:40:12.881Z,6.00
2024-04-22T08:41:12.834Z,5.50
2024-04-22T08:42:12.786Z,6.10
2024-04-22T08:43:12.798Z,5.00
2024-04-22T08:44:12.716Z,6.80
2024-04-22T08:45:12.716Z,5.70
2024-04-22T08:46:12.748Z,4.80
2024-04-22T08:47:12.648Z,6.00
2024-04-22T08:48:12.704Z,4.50
2024-04-22T08:49:12.618Z,6.60
2024-04-22T08:50:12.557Z,6.00
2024-04-22T08:51:12.543Z,4.80
2024-04-22T08:52:12.540Z,4.70
2024-04-22T08:53:12.541Z,5.10
2024-04-22T08:54:13.482Z,5.20
2024-04-22T08:55:12.443Z,6.00
2024-04-22T08:56:12.451Z,4.50
2024-04-22T08:57:12.380Z,4.70
2024-04-22T08:58:12.381Z,6.60
2024-04-22T08:59:21.798Z,6.30
2024-04-22T09:00:12.293Z,5.00
2024-04-22T09:01:12.397Z,4.80
2024-04-22T09:02:12.294Z,5.40
2024-04-22T09:03:12.406Z,5.60
2024-04-22T09:04:12.331Z,7.10
2024-04-22T09:05:12.407Z,5.20
2024-04-22T09:06:12.274Z,5.90
2024-04-22T09:07:12.182Z,6.00
2024-04-22T09:08:12.225Z,5.00
2024-04-22T09:09:16.787Z,5.50
2024-04-22T09:10:35.470Z,5.80
2024-04-22T09:11:39.792Z,5.80
2024-04-22T09:12:14.070Z,6.50
2024-04-22T09:13:12.194Z,5.70
2024-04-22T09:14:12.144Z,5.50
2024-04-22T09:15:11.957Z,5.10
2024-04-22T09:16:11.990Z,6.50
2024-04-22T09:17:12.160Z,4.80
2024-04-22T09:18:12.053Z,6.50
2024-04-22T09:19:11.937Z,5.50
2024-04-22T09:20:11.859Z,8.70
2024-04-22T09:21:11.795Z,5.00
2024-04-22T09:22:11.954Z,5.10
2024-04-22T09:23:11.826Z,5.20
2024-04-22T09:24:11.680Z,5.90
2024-04-22T09:25:11.982Z,5.90
2024-04-22T09:26:12.022Z,6.30
2024-04-22T09:27:11.669Z,5.50
2024-04-22T09:28:11.604Z,5.40
2024-04-22T09:29:11.723Z,4.90
2024-04-22T09:30:11.521Z,7.90
2024-04-22T09:31:11.732Z,5.40
2024-04-22T09:32:11.504Z,6.20
2024-04-22T09:33:11.862Z,5.90
2024-04-22T09:34:11.455Z,5.50
2024-04-22T09:35:13.562Z,5.50
2024-04-22T09:36:11.525Z,5.10
2024-04-22T09:37:11.528Z,6.20
2024-04-22T09:38:11.473Z,6.30
2024-04-22T09:39:11.265Z,6.40
2024-04-22T09:40:11.250Z,7.40
2024-04-22T09:41:11.498Z,6.20
2024-04-22T09:42:11.218Z,6.00
2024-04-22T09:43:11.269Z,6.70
2024-04-22T09:44:14.091Z,5.50
2024-04-22T09:45:11.177Z,4.90
2024-04-22T09:46:11.254Z,4.80
2024-04-22T09:47:11.255Z,6.50
2024-04-22T09:48:11.143Z,5.50
2024-04-22T09:49:11.219Z,5.10
2024-04-22T09:50:11.076Z,5.30
2024-04-22T09:51:10.988Z,5.40
2024-04-22T09:52:10.946Z,5.90
2024-04-22T09:53:10.990Z,7.20
2024-04-22T09:54:10.932Z,5.50
2024-04-22T09:55:10.859Z,6.20
2024-04-22T09:56:11.185Z,5.30
2024-04-22T09:57:10.857Z,6.30
2024-04-22T09:58:10.750Z,5.20
2024-04-22T09:59:11.030Z,5.50
2024-04-22T10:00:10.752Z,6.30
2024-04-22T10:01:10.757Z,8.10
2024-04-22T10:02:10.761Z,6.30
2024-04-22T10:03:10.697Z,5.20
2024-04-22T10:04:10.680Z,5.10
2024-04-22T10:05:10.855Z,5.70
2024-04-22T10:06:10.819Z,6.30
2024-04-22T10:07:10.527Z,6.00
2024-04-22T10:08:10.599Z,5.30
2024-04-22T10:09:10.462Z,5.30
2024-04-22T10:10:10.542Z,5.20
2024-04-22T10:11:10.711Z,5.50
2024-04-22T10:12:11.515Z,4.90
2024-04-22T10:13:10.403Z,5.80
2024-04-22T10:14:10.388Z,4.80
2024-04-22T10:15:10.410Z,7.00
2024-04-22T10:16:10.308Z,5.30
2024-04-22T10:17:10.349Z,5.40
2024-04-22T10:18:10.471Z,4.90
2024-04-22T10:19:10.630Z,5.10
2024-04-22T10:20:10.290Z,4.90
2024-04-22T10:21:10.165Z,8.30
2024-04-22T10:22:10.139Z,6.10
2024-04-22T10:23:10.103Z,5.90
2024-04-22T10:24:10.073Z,6.20
2024-04-22T10:25:10.103Z,5.50
2024-04-22T10:26:10.079Z,4.80
2024-04-22T10:27:12.252Z,5.30
2024-04-22T10:28:09.983Z,5.30
2024-04-22T10:29:09.944Z,5.20
2024-04-22T10:30:10.010Z,7.20
2024-04-22T10:31:09.908Z,6.30
2024-04-22T10:32:09.915Z,5.40
2024-04-22T10:33:09.948Z,9.10
2024-04-22T10:34:09.855Z,5.20
2024-04-22T10:35:09.787Z,6.20
2024-04-22T10:36:09.764Z,4.70
2024-04-22T10:37:09.744Z,5.80
2024-04-22T10:38:09.727Z,6.30
2024-04-22T10:39:09.681Z,5.70
2024-04-22T10:40:09.661Z,5.20
2024-04-22T10:41:09.633Z,5.50
2024-04-22T10:42:09.611Z,6.60
2024-04-22T10:43:09.590Z,6.10
2024-04-22T10:44:09.564Z,6.10
2024-04-22T10:45:09.529Z,6.00
2024-04-22T10:46:09.574Z,6.70
2024-04-22T10:47:09.476Z,4.60
2024-04-22T10:48:15.710Z,4.90
2024-04-22T10:49:09.621Z,5.20
2024-04-22T10:50:09.944Z,5.40
2024-04-22T10:51:09.380Z,5.10
2024-04-22T10:52:09.387Z,7.20
2024-04-22T10:53:09.322Z,5.90
2024-04-22T10:54:09.363Z,8.90
2024-04-22T10:55:09.308Z,5.90
2024-04-22T10:56:09.394Z,4.80
2024-04-22T10:57:09.225Z,5.30
2024-04-22T10:58:09.197Z,5.50
2024-04-22T10:59:09.165Z,5.00
2024-04-22T11:00:09.143Z,4.50
2024-04-22T11:01:09.180Z,5.30
2024-04-22T11:02:09.536Z,6.00
2024-04-22T11:03:09.063Z,5.90
2024-04-22T11:04:09.112Z,4.70
2024-04-22T11:05:09.056Z,6.30
2024-04-22T11:06:09.070Z,5.10
2024-04-22T11:07:08.974Z,5.00
2024-04-22T11:08:08.932Z,5.20
2024-04-22T11:09:08.949Z,4.70
2024-04-22T11:10:08.897Z,5.70
2024-04-22T11:11:08.970Z,5.90
2024-04-22T11:12:08.882Z,6.30
2024-04-22T11:13:08.811Z,6.00
2024-04-22T11:14:08.785Z,4.70
2024-04-22T11:15:08.804Z,6.20
2024-04-22T11:16:08.783Z,4.40
2024-04-22T11:17:08.739Z,6.10
2024-04-22T11:18:08.741Z,33.00
2024-04-22T11:19:08.697Z,7.80
2024-04-22T11:20:08.655Z,8.30
2024-04-22T11:21:08.601Z,6.40
2024-04-22T11:22:08.580Z,6.30
2024-04-22T11:23:08.566Z,5.20
2024-04-22T11:24:08.528Z,6.40
2024-04-22T11:25:08.504Z,4.60
2024-04-22T11:26:08.487Z,5.00
2024-04-22T11:27:08.463Z,5.10
2024-04-22T11:28:08.422Z,5.60
2024-04-22T11:29:08.394Z,4.70
2024-04-22T11:30:08.381Z,4.90
2024-04-22T11:31:08.357Z,4.80
2024-04-22T11:32:08.357Z,5.00
2024-04-22T11:33:08.428Z,5.40
2024-04-22T11:34:08.272Z,5.00
2024-04-22T11:35:08.318Z,4.20
2024-04-22T11:36:08.248Z,4.20
2024-04-22T11:37:08.187Z,5.20
2024-04-22T11:38:08.165Z,4.90
2024-04-22T11:39:08.174Z,5.30
2024-04-22T11:40:08.124Z,4.80
2024-04-22T11:41:08.084Z,4.80
2024-04-22T11:42:08.063Z,5.20
2024-04-22T11:43:08.038Z,5.00
2024-04-22T11:44:08.013Z,5.20
2024-04-22T11:45:07.980Z,5.80
2024-04-22T11:46:07.962Z,4.60
2024-04-22T11:47:08.116Z,4.70
2024-04-22T11:48:07.969Z,5.40
2024-04-22T11:49:07.875Z,6.20
2024-04-22T11:50:07.886Z,4.40
2024-04-22T11:51:07.825Z,4.60
2024-04-22T11:52:07.828Z,4.50
2024-04-22T11:53:14.813Z,4.10
2024-04-22T11:54:07.751Z,4.20
2024-04-22T11:55:07.723Z,4.70
2024-04-22T11:56:09.034Z,5.50
2024-04-22T11:57:07.686Z,5.50
2024-04-22T11:58:07.655Z,5.10
2024-04-22T11:59:07.631Z,4.70
2024-04-22T12:00:07.607Z,6.10
2024-04-22T12:01:07.614Z,4.60
2024-04-22T12:02:07.554Z,5.50
2024-04-22T12:03:07.539Z,4.70
2024-04-22T12:04:07.557Z,5.30
2024-04-22T12:05:07.567Z,4.70
2024-04-22T12:06:07.539Z,4.60
2024-04-22T12:07:07.418Z,4.50
2024-04-22T12:08:07.412Z,4.40
2024-04-22T12:09:09.128Z,4.80
2024-04-22T12:10:07.362Z,4.60
2024-04-22T12:11:07.338Z,4.20
2024-04-22T12:12:07.290Z,4.00
2024-04-22T12:13:07.274Z,3.90
2024-04-22T12:14:07.252Z,5.60
2024-04-22T12:15:07.211Z,4.30
2024-04-22T12:16:07.242Z,4.20
2024-04-22T12:17:07.258Z,4.50
2024-04-22T12:18:07.158Z,4.60
2024-04-22T12:19:07.111Z,4.80
2024-04-22T12:20:07.087Z,4.90
2024-04-22T12:21:07.074Z,4.50
2024-04-22T12:22:07.051Z,4.70
2024-04-22T12:23:07.010Z,4.20
2024-04-22T12:24:07.010Z,4.70
2024-04-22T12:25:06.956Z,4.70
2024-04-22T12:26:06.930Z,4.50
2024-04-22T12:27:08.189Z,5.60
2024-04-22T12:28:13.754Z,4.70
2024-04-22T12:29:06.866Z,4.10
2024-04-22T12:30:06.878Z,6.00
2024-04-22T12:31:06.910Z,6.40
2024-04-22T12:32:06.799Z,4.70
2024-04-22T12:33:06.906Z,4.80
2024-04-22T12:34:12.545Z,4.70
2024-04-22T12:35:06.953Z,4.70
2024-04-22T12:36:06.678Z,5.30
2024-04-22T12:37:06.655Z,4.00
2024-04-22T12:38:07.187Z,3.80
2024-04-22T12:39:06.602Z,4.20
2024-04-22T12:40:06.592Z,4.90
2024-04-22T12:41:06.549Z,4.40
2024-04-22T12:42:06.523Z,4.20
2024-04-22T12:43:06.511Z,4.30
2024-04-22T12:44:06.574Z,3.90
2024-04-22T12:45:06.482Z,5.00
2024-04-22T12:46:06.425Z,6.40
2024-04-22T12:47:06.404Z,4.40
2024-04-22T12:48:06.466Z,4.30
2024-04-22T12:49:06.354Z,4.70
2024-04-22T12:50:06.396Z,5.10
2024-04-22T12:51:06.295Z,5.00
2024-04-22T12:52:06.276Z,4.50
2024-04-22T12:53:06.243Z,4.50
2024-04-22T12:54:06.212Z,3.90
2024-04-22T12:55:06.192Z,4.80
2024-04-22T12:56:06.492Z,5.00
2024-04-22T12:57:06.131Z,4.90
2024-04-22T12:58:06.112Z,4.90
2024-04-22T12:59:06.081Z,4.30
2024-04-22T13:00:06.064Z,4.90
2024-04-22T13:01:06.385Z,4.00
2024-04-22T13:02:06.052Z,5.60
2024-04-22T13:03:06.013Z,4.30
2024-04-22T13:04:06.023Z,4.60
2024-04-22T13:05:06.078Z,4.30
2024-04-22T13:06:05.902Z,5.30
2024-04-22T13:07:06.132Z,5.10
2024-04-22T13:08:05.852Z,6.30
2024-04-22T13:09:05.827Z,4.30
2024-04-22T13:10:05.795Z,4.10
2024-04-22T13:11:05.889Z,5.00
2024-04-22T13:12:05.775Z,4.90
2024-04-22T13:13:06.403Z,4.40
2024-04-22T13:14:05.712Z,5.10
2024-04-22T13:15:05.681Z,5.60
2024-04-22T13:16:05.648Z,4.10
2024-04-22T13:17:05.627Z,4.60